KLHX

La Junta Municipal Airport

La Junta, Colorado, USA
METAR KLHX 162253Z AUTO 05013KT 10SM CLR 13/M12 A2969 RMK AO2 SLP042 T01331122 TSNO
Observed Flight Rules
Dec-16 @ 22:53 UTC (an hour ago) Visual Flight Rules
Wind Visibility Clouds
50° at 13 knots 10 miles
  • Clear skies
Temperatures Readings
Current 13°C / 55°F
Dewpoint -12°C / 10°F
Humidity 16%
Altimeter 29.69" Hg
Pressure 1004.2 hPa
Elevation 1277
METAR KLHX 162253Z AUTO 05013KT 10SM CLR 13/M12 A2969 RMK AO2 SLP042 T01331122 TSNO
Observed Flight Rules
Dec-16 @ 22:53 UTC
(an hour ago)
VFR
Wind Visibility
50° at 13 knots 10 miles
Clouds
  • Clear skies
Temperature Dewpoint
13°C / 55°F -12°C / 10°F
Humidity Altimeter Pressure
16% 29.69" Hg 1004.2 hPa